Time;durP1;ratioP1;P1;durP2;ratioP2;P2;SDS_P1;SDS_P2;PMS_P1;PMS_P2;Temp;Humidity;BMP_temperature;BMP_pressure;BME280_temperature;BME280_humidity;BME280_pressure;Samples;Min_cycle;Max_cycle;Signal;HPM_P1;HPM_P2
2023/08/12 00:04:53;;;;;;;15.85;9.68;;;;;;;;;;10008600;29;20697;-81
2023/08/12 00:09:55;;;;;;;16.35;10.07;;;;;;;;;;10007943;29;20052;-84
2023/08/12 00:14:57;;;;;;;19.30;10.80;;;;;;;;;;9992580;29;20040;-82
2023/08/12 00:19:58;;;;;;;15.68;11.45;;;;;;;;;;10009006;29;20049;-82
2023/08/12 00:24:59;;;;;;;17.67;11.38;;;;;;;;;;10004203;29;20133;-82
2023/08/12 00:30:00;;;;;;;16.00;11.70;;;;;;;;;;9987015;29;20052;-81
2023/08/12 00:35:01;;;;;;;13.73;10.98;;;;;;;;;;10002083;29;20054;-81
2023/08/12 00:40:02;;;;;;;19.10;11.95;;;;;;;;;;9995432;29;20545;-82
2023/08/12 00:45:03;;;;;;;19.85;11.77;;;;;;;;;;10012679;29;20077;-82
2023/08/12 00:50:05;;;;;;;15.73;11.10;;;;;;;;;;10008360;29;20144;-82
2023/08/12 00:55:06;;;;;;;15.18;11.00;;;;;;;;;;9990617;29;20044;-81
2023/08/12 01:00:08;;;;;;;17.30;11.57;;;;;;;;;;9998154;29;20045;-82
2023/08/12 01:05:09;;;;;;;18.13;11.85;;;;;;;;;;9991764;29;20495;-82
2023/08/12 01:10:14;;;;;;;14.68;11.00;;;;;;;;;;9990241;29;20081;-82
2023/08/12 01:15:16;;;;;;;16.23;10.77;;;;;;;;;;10004679;29;20118;-82
2023/08/12 01:20:18;;;;;;;14.35;10.30;;;;;;;;;;9996119;29;20079;-81
2023/08/12 01:25:19;;;;;;;16.63;12.02;;;;;;;;;;10006471;29;20054;-83
2023/08/12 01:30:22;;;;;;;16.40;11.15;;;;;;;;;;9999584;29;20506;-81
2023/08/12 01:35:30;;;;;;;18.35;12.38;;;;;;;;;;10011950;29;20088;-81
2023/08/12 01:40:32;;;;;;;16.90;12.43;;;;;;;;;;10009230;29;20501;-82
2023/08/12 01:45:33;;;;;;;22.08;12.50;;;;;;;;;;9999632;29;20060;-83
2023/08/12 01:50:34;;;;;;;14.57;10.57;;;;;;;;;;9999626;29;20435;-82
2023/08/12 01:55:35;;;;;;;15.15;11.38;;;;;;;;;;10002503;29;20053;-82
2023/08/12 02:00:36;;;;;;;15.32;11.45;;;;;;;;;;9995911;29;20049;-81
2023/08/12 02:05:37;;;;;;;17.70;11.93;;;;;;;;;;10003009;29;20062;-82
2023/08/12 02:10:38;;;;;;;16.75;12.65;;;;;;;;;;9989996;29;20085;-82
2023/08/12 02:15:39;;;;;;;18.55;12.95;;;;;;;;;;10003758;29;20138;-82
2023/08/12 02:20:43;;;;;;;18.88;12.63;;;;;;;;;;9990670;29;20060;-82
2023/08/12 02:25:44;;;;;;;17.65;13.55;;;;;;;;;;9998339;29;20050;-83
2023/08/12 02:30:45;;;;;;;15.35;12.18;;;;;;;;;;9994220;29;20620;-83
2023/08/12 02:35:46;;;;;;;18.45;12.65;;;;;;;;;;10009690;29;20049;-81
2023/08/12 02:40:51;;;;;;;17.38;12.52;;;;;;;;;;9991923;29;20113;-82
2023/08/12 02:45:52;;;;;;;15.98;12.10;;;;;;;;;;9987837;29;20050;-82
2023/08/12 02:50:53;;;;;;;23.92;14.10;;;;;;;;;;10007531;29;20038;-81
2023/08/12 02:55:54;;;;;;;18.83;12.82;;;;;;;;;;10006200;29;20057;-83
2023/08/12 03:00:55;;;;;;;16.70;12.82;;;;;;;;;;10006394;29;20491;-83
2023/08/12 03:05:56;;;;;;;17.70;13.35;;;;;;;;;;9988524;29;20139;-81
2023/08/12 03:11:01;;;;;;;16.45;12.27;;;;;;;;;;9975296;29;20038;-82
2023/08/12 03:16:02;;;;;;;18.90;13.30;;;;;;;;;;9977354;29;20379;-82
2023/08/12 03:21:06;;;;;;;20.05;14.65;;;;;;;;;;9989516;29;20034;-81
2023/08/12 03:26:07;;;;;;;17.35;12.65;;;;;;;;;;9984051;29;20054;-83
2023/08/12 03:31:08;;;;;;;18.95;13.00;;;;;;;;;;10007708;29;20406;-81
2023/08/12 03:36:09;;;;;;;18.48;12.25;;;;;;;;;;9996579;29;20038;-82
2023/08/12 03:41:10;;;;;;;17.70;12.68;;;;;;;;;;9979715;29;20125;-81
2023/08/12 03:46:11;;;;;;;20.48;14.48;;;;;;;;;;10002105;29;20069;-81
2023/08/12 03:51:12;;;;;;;19.20;14.32;;;;;;;;;;10005614;29;20050;-82
2023/08/12 03:56:15;;;;;;;19.42;13.60;;;;;;;;;;9989826;29;20430;-81
2023/08/12 04:01:16;;;;;;;20.42;15.30;;;;;;;;;;9995269;29;20050;-82
2023/08/12 04:06:17;;;;;;;22.17;16.80;;;;;;;;;;9995790;29;20112;-81
2023/08/12 04:11:18;;;;;;;25.17;15.95;;;;;;;;;;9988009;29;20042;-81
2023/08/12 04:16:19;;;;;;;21.92;17.33;;;;;;;;;;9978557;29;20077;-83
2023/08/12 04:21:20;;;;;;;26.42;19.95;;;;;;;;;;9974410;29;20086;-82
2023/08/12 04:26:21;;;;;;;26.27;19.58;;;;;;;;;;9979044;29;20139;-82
2023/08/12 04:31:22;;;;;;;29.15;20.85;;;;;;;;;;9986874;29;20083;-81
2023/08/12 04:36:23;;;;;;;33.65;23.55;;;;;;;;;;9999629;29;20068;-83
2023/08/12 04:41:24;;;;;;;27.00;20.92;;;;;;;;;;10005760;29;20048;-83
2023/08/12 04:46:25;;;;;;;28.08;20.35;;;;;;;;;;10010157;29;20406;-83
2023/08/12 04:51:26;;;;;;;23.65;19.45;;;;;;;;;;9994602;29;20048;-82
2023/08/12 04:56:31;;;;;;;29.92;22.83;;;;;;;;;;9997066;29;20053;-81
2023/08/12 05:01:32;;;;;;;27.45;20.10;;;;;;;;;;9993001;29;20507;-83
2023/08/12 05:06:33;;;;;;;24.63;17.88;;;;;;;;;;10005528;29;20165;-83
2023/08/12 05:11:34;;;;;;;25.50;18.65;;;;;;;;;;10005114;29;20463;-83
2023/08/12 05:16:35;;;;;;;29.38;19.52;;;;;;;;;;10005943;29;20105;-83
2023/08/12 05:21:36;;;;;;;26.95;19.25;;;;;;;;;;10002905;29;20415;-87
2023/08/12 05:26:52;;;;;;;22.65;19.02;;;;;;;;;;9980962;29;20054;-86
2023/08/12 05:31:59;;;;;;;27.02;21.27;;;;;;;;;;9976654;29;20035;-85
2023/08/12 05:37:00;;;;;;;24.02;18.95;;;;;;;;;;9985155;29;20049;-85
2023/08/12 05:42:01;;;;;;;24.40;18.85;;;;;;;;;;9986112;29;20076;-86
2023/08/12 05:47:02;;;;;;;24.15;18.67;;;;;;;;;;9999090;29;20049;-86
2023/08/12 05:52:03;;;;;;;25.40;19.58;;;;;;;;;;9983909;29;20451;-84
2023/08/12 06:02:26;;;;;;;23.23;18.63;;;;;;;;;;9999603;29;20058;-85
2023/08/12 06:07:27;;;;;;;28.98;20.10;;;;;;;;;;9997925;29;20050;-85
2023/08/12 06:12:28;;;;;;;25.83;19.02;;;;;;;;;;9989396;29;20042;-85
2023/08/12 06:17:29;;;;;;;28.52;20.42;;;;;;;;;;9979751;29;20054;-85
2023/08/12 06:22:30;;;;;;;28.27;20.48;;;;;;;;;;10008332;29;20073;-86
2023/08/12 06:27:31;;;;;;;29.33;18.70;;;;;;;;;;9992415;29;20069;-84
2023/08/12 06:32:34;;;;;;;20.13;16.00;;;;;;;;;;9998770;29;20565;-85
2023/08/12 06:37:35;;;;;;;23.00;17.85;;;;;;;;;;9988721;29;20491;-85
2023/08/12 06:42:36;;;;;;;23.70;17.35;;;;;;;;;;9995378;29;20159;-85
2023/08/12 06:47:37;;;;;;;20.63;15.65;;;;;;;;;;9985657;29;20050;-86
2023/08/12 06:52:38;;;;;;;20.60;14.15;;;;;;;;;;9994085;29;20038;-89
2023/08/12 06:57:39;;;;;;;19.95;14.80;;;;;;;;;;9978910;29;20054;-85
2023/08/12 07:02:42;;;;;;;20.92;11.95;;;;;;;;;;10002868;29;20425;-87
2023/08/12 07:07:43;;;;;;;16.67;11.95;;;;;;;;;;9978774;29;20095;-87
2023/08/12 07:12:44;;;;;;;17.02;10.82;;;;;;;;;;9980109;29;20046;-87
2023/08/12 07:17:45;;;;;;;17.38;11.60;;;;;;;;;;10006736;29;20052;-88
2023/08/12 07:22:46;;;;;;;12.70;10.07;;;;;;;;;;10009437;29;20038;-87
2023/08/12 07:27:47;;;;;;;16.10;9.45;;;;;;;;;;9991893;29;20448;-87
2023/08/12 07:32:48;;;;;;;11.45;7.97;;;;;;;;;;9992331;29;20048;-87
2023/08/12 07:37:50;;;;;;;11.02;7.13;;;;;;;;;;9983393;29;20160;-84
2023/08/12 07:42:51;;;;;;;9.55;7.70;;;;;;;;;;9992724;29;20085;-86
2023/08/12 07:47:52;;;;;;;13.05;7.75;;;;;;;;;;10006228;29;20030;-86
2023/08/12 07:52:53;;;;;;;9.82;7.03;;;;;;;;;;9989584;29;20065;-86
2023/08/12 07:57:54;;;;;;;9.93;6.60;;;;;;;;;;9989927;29;20057;-87
2023/08/12 08:02:55;;;;;;;7.68;6.05;;;;;;;;;;9965066;29;20403;-87
2023/08/12 08:07:56;;;;;;;7.97;5.93;;;;;;;;;;9994691;29;20053;-88
2023/08/12 08:12:57;;;;;;;10.60;6.65;;;;;;;;;;9981954;29;20681;-89
2023/08/12 08:17:58;;;;;;;9.77;5.70;;;;;;;;;;10001954;29;20030;-86
2023/08/12 08:22:59;;;;;;;9.70;5.93;;;;;;;;;;9998641;29;20062;-84
2023/08/12 08:28:00;;;;;;;9.10;6.82;;;;;;;;;;9986246;29;20050;-84
2023/08/12 08:33:01;;;;;;;7.50;4.97;;;;;;;;;;10002884;29;20061;-83
2023/08/12 08:38:02;;;;;;;7.57;5.15;;;;;;;;;;10014641;29;20050;-83
2023/08/12 08:43:03;;;;;;;6.68;4.97;;;;;;;;;;9983754;29;20069;-85
2023/08/12 08:48:05;;;;;;;7.95;4.63;;;;;;;;;;10012009;29;20038;-85
2023/08/12 08:53:07;;;;;;;5.55;4.57;;;;;;;;;;9987360;29;20046;-87
2023/08/12 08:58:08;;;;;;;5.18;3.35;;;;;;;;;;9980334;29;20121;-85
2023/08/12 09:03:10;;;;;;;5.60;3.78;;;;;;;;;;10003801;29;20065;-87
2023/08/12 09:08:12;;;;;;;8.20;3.97;;;;;;;;;;10008469;29;20573;-85
2023/08/12 09:13:14;;;;;;;4.60;3.60;;;;;;;;;;9969540;29;20132;-89
2023/08/12 09:18:16;;;;;;;5.35;3.85;;;;;;;;;;9993823;29;20034;-85
2023/08/12 09:23:18;;;;;;;6.13;4.20;;;;;;;;;;9995533;29;20042;-86
2023/08/12 09:28:20;;;;;;;6.53;4.47;;;;;;;;;;10006187;29;20514;-86
2023/08/12 09:33:27;;;;;;;3.75;3.35;;;;;;;;;;9993174;29;20054;-87
2023/08/12 09:38:28;;;;;;;5.72;3.72;;;;;;;;;;10012443;29;20030;-86
2023/08/12 09:43:29;;;;;;;5.00;2.67;;;;;;;;;;9996228;29;20055;-86
2023/08/12 09:48:30;;;;;;;2.88;2.45;;;;;;;;;;10001744;29;20170;-86
2023/08/12 09:53:32;;;;;;;3.25;2.38;;;;;;;;;;9981935;29;20088;-86
2023/08/12 09:58:35;;;;;;;3.03;2.78;;;;;;;;;;9987586;29;20419;-86
2023/08/12 10:03:36;;;;;;;6.30;2.97;;;;;;;;;;9983223;29;20054;-87
2023/08/12 10:08:38;;;;;;;3.67;2.67;;;;;;;;;;10002328;29;20044;-85
2023/08/12 10:13:40;;;;;;;4.68;2.35;;;;;;;;;;9980240;29;20056;-86
2023/08/12 10:18:41;;;;;;;2.53;2.30;;;;;;;;;;9990245;29;20439;-85
2023/08/12 10:23:42;;;;;;;2.05;1.85;;;;;;;;;;9992789;29;20402;-85
2023/08/12 10:28:43;;;;;;;2.83;1.70;;;;;;;;;;9993491;29;20110;-85
2023/08/12 10:33:48;;;;;;;4.63;2.00;;;;;;;;;;10010148;29;20046;-86
2023/08/12 10:38:49;;;;;;;2.45;1.70;;;;;;;;;;9986349;29;20042;-86
2023/08/12 10:43:53;;;;;;;4.63;2.55;;;;;;;;;;9984943;29;20061;-88
2023/08/12 10:49:04;;;;;;;6.38;1.98;;;;;;;;;;9993584;29;20037;-87
2023/08/12 10:54:17;;;;;;;4.78;2.50;;;;;;;;;;10004590;29;20052;-88
2023/08/12 10:59:37;;;;;;;2.95;2.00;;;;;;;;;;10003057;29;20042;-86
2023/08/12 11:04:38;;;;;;;2.10;1.90;;;;;;;;;;9960630;29;20062;-87
2023/08/12 11:09:39;;;;;;;3.28;2.00;;;;;;;;;;10004710;29;20103;-85
2023/08/12 11:14:53;;;;;;;7.43;1.98;;;;;;;;;;9989962;29;20065;-86
2023/08/12 11:19:55;;;;;;;1.90;1.67;;;;;;;;;;10008731;29;20038;-86
2023/08/12 11:24:56;;;;;;;2.35;1.73;;;;;;;;;;9988017;29;20815;-86
2023/08/12 11:29:57;;;;;;;6.68;2.30;;;;;;;;;;9984948;29;20042;-87
2023/08/12 11:34:59;;;;;;;3.15;2.63;;;;;;;;;;9977797;29;20181;-84
2023/08/12 11:40:02;;;;;;;3.67;2.35;;;;;;;;;;10004274;29;20521;-87
2023/08/12 11:45:04;;;;;;;3.17;1.98;;;;;;;;;;9989277;29;20058;-87
2023/08/12 11:50:06;;;;;;;4.65;2.53;;;;;;;;;;9987424;29;20046;-88
2023/08/12 11:55:07;;;;;;;2.88;2.15;;;;;;;;;;9982565;29;20049;-87
2023/08/12 12:00:18;;;;;;;5.30;2.45;;;;;;;;;;10001630;29;20113;-88
2023/08/12 12:05:21;;;;;;;2.15;1.90;;;;;;;;;;9998618;29;20160;-88
2023/08/12 12:10:29;;;;;;;2.60;2.10;;;;;;;;;;10010270;29;20676;-90
2023/08/12 12:15:31;;;;;;;3.28;2.17;;;;;;;;;;9989134;29;20049;-85
2023/08/12 12:20:32;;;;;;;3.55;2.38;;;;;;;;;;9986033;29;20068;-86
2023/08/12 12:25:33;;;;;;;3.53;2.35;;;;;;;;;;9996218;29;20042;-87
2023/08/12 12:30:34;;;;;;;2.30;2.10;;;;;;;;;;10012447;29;20038;-87
2023/08/12 12:35:35;;;;;;;2.53;2.00;;;;;;;;;;9988020;29;20042;-86
2023/08/12 12:40:37;;;;;;;3.17;2.38;;;;;;;;;;9997972;29;20037;-87
2023/08/12 12:45:38;;;;;;;3.58;2.20;;;;;;;;;;9997673;29;20469;-87
2023/08/12 12:50:39;;;;;;;4.13;2.40;;;;;;;;;;9985126;29;20049;-86
2023/08/12 12:55:40;;;;;;;2.72;2.00;;;;;;;;;;10014851;29;20502;-86
2023/08/12 13:00:41;;;;;;;3.72;2.35;;;;;;;;;;10013745;29;20125;-86
2023/08/12 13:05:42;;;;;;;3.45;2.42;;;;;;;;;;9983374;29;20061;-86
2023/08/12 13:10:43;;;;;;;3.13;2.00;;;;;;;;;;10013832;29;20575;-87
2023/08/12 13:15:45;;;;;;;4.57;2.63;;;;;;;;;;10013299;29;20102;-86
2023/08/12 13:20:46;;;;;;;2.40;2.20;;;;;;;;;;10012904;29;20046;-87
2023/08/12 13:25:47;;;;;;;3.85;2.35;;;;;;;;;;9996667;29;20057;-87
2023/08/12 13:30:48;;;;;;;5.75;2.70;;;;;;;;;;10008653;29;20033;-87
2023/08/12 13:35:49;;;;;;;3.70;2.30;;;;;;;;;;10004993;29;20689;-87
2023/08/12 13:40:50;;;;;;;5.63;2.60;;;;;;;;;;10013526;29;20102;-86
2023/08/12 13:45:51;;;;;;;3.75;2.40;;;;;;;;;;10012549;29;20058;-85
2023/08/12 13:50:52;;;;;;;3.13;2.83;;;;;;;;;;9994963;29;20674;-86
2023/08/12 13:55:53;;;;;;;2.60;2.40;;;;;;;;;;9994823;29;20124;-87
2023/08/12 14:00:54;;;;;;;5.25;3.20;;;;;;;;;;10011868;29;20172;-86
2023/08/12 14:05:55;;;;;;;2.92;2.30;;;;;;;;;;9994172;29;20061;-86
2023/08/12 14:10:56;;;;;;;3.40;2.10;;;;;;;;;;10010967;29;20538;-87
2023/08/12 14:15:57;;;;;;;2.88;2.17;;;;;;;;;;10011446;29;20049;-87
2023/08/12 14:20:58;;;;;;;4.05;2.38;;;;;;;;;;10011560;29;20030;-86
2023/08/12 14:25:59;;;;;;;2.50;1.95;;;;;;;;;;10005560;29;20947;-86
2023/08/12 14:31:00;;;;;;;3.50;2.20;;;;;;;;;;10002437;29;20091;-86
2023/08/12 14:36:01;;;;;;;4.63;2.17;;;;;;;;;;10011557;29;20091;-86
2023/08/12 14:41:02;;;;;;;3.03;2.22;;;;;;;;;;10010253;29;20565;-86
2023/08/12 14:46:03;;;;;;;3.40;2.17;;;;;;;;;;9993685;29;20046;-86
2023/08/12 14:51:04;;;;;;;3.95;2.28;;;;;;;;;;10010597;29;20117;-85
2023/08/12 14:56:05;;;;;;;3.22;2.00;;;;;;;;;;9999542;29;20048;-86
2023/08/12 15:01:06;;;;;;;4.10;2.10;;;;;;;;;;10009334;29;20152;-86
2023/08/12 15:06:07;;;;;;;3.22;2.20;;;;;;;;;;10008858;29;20061;-85
2023/08/12 15:11:08;;;;;;;3.60;2.55;;;;;;;;;;9993144;29;20537;-86
2023/08/12 15:16:11;;;;;;;2.50;2.10;;;;;;;;;;9992532;29;20041;-86
2023/08/12 15:21:12;;;;;;;2.13;1.80;;;;;;;;;;9992709;29;20494;-85
2023/08/12 15:26:13;;;;;;;4.15;2.03;;;;;;;;;;9992206;29;20058;-86
2023/08/12 15:31:14;;;;;;;4.70;2.20;;;;;;;;;;10007971;29;20067;-85
2023/08/12 15:36:15;;;;;;;3.65;2.20;;;;;;;;;;10008547;29;20034;-85
2023/08/12 15:41:17;;;;;;;3.40;2.50;;;;;;;;;;10008217;29;20113;-85
2023/08/12 15:46:18;;;;;;;2.13;1.80;;;;;;;;;;10008351;29;20049;-86
2023/08/12 15:51:19;;;;;;;2.90;2.30;;;;;;;;;;10008551;29;20069;-86
2023/08/12 15:56:20;;;;;;;5.97;2.80;;;;;;;;;;9991311;29;20577;-86
2023/08/12 16:01:21;;;;;;;4.45;2.58;;;;;;;;;;10008931;29;20097;-86
2023/08/12 16:06:23;;;;;;;4.53;2.55;;;;;;;;;;10007763;29;20066;-86
2023/08/12 16:11:24;;;;;;;18.00;13.48;;;;;;;;;;9995442;29;20037;-86
2023/08/12 16:16:25;;;;;;;7.65;6.95;;;;;;;;;;10007963;29;20038;-84
2023/08/12 16:21:26;;;;;;;3.35;2.38;;;;;;;;;;10007330;29;20102;-86
2023/08/12 16:26:27;;;;;;;2.95;2.17;;;;;;;;;;9991119;29;20053;-86
2023/08/12 16:31:30;;;;;;;3.22;2.50;;;;;;;;;;10007111;29;20118;-87
2023/08/12 16:36:32;;;;;;;2.63;1.85;;;;;;;;;;9991331;29;20600;-86
2023/08/12 16:41:33;;;;;;;3.85;2.90;;;;;;;;;;9994871;29;20082;-87
2023/08/12 16:46:34;;;;;;;4.80;2.65;;;;;;;;;;9996486;29;20054;-87
2023/08/12 16:51:35;;;;;;;4.10;2.22;;;;;;;;;;10014266;29;20105;-86
2023/08/12 16:56:36;;;;;;;4.18;2.92;;;;;;;;;;9997129;29;20124;-86
2023/08/12 17:01:37;;;;;;;4.53;2.60;;;;;;;;;;10013126;29;20606;-86
2023/08/12 17:06:41;;;;;;;3.85;3.13;;;;;;;;;;9996902;29;20050;-86
2023/08/12 17:11:42;;;;;;;5.40;2.93;;;;;;;;;;9996875;29;20046;-87
2023/08/12 17:16:43;;;;;;;3.90;3.30;;;;;;;;;;10013484;29;20574;-86
2023/08/12 17:21:44;;;;;;;4.70;3.42;;;;;;;;;;9996432;29;20050;-86
2023/08/12 17:26:45;;;;;;;5.78;3.90;;;;;;;;;;9996590;29;20052;-86
2023/08/12 17:31:46;;;;;;;8.38;3.80;;;;;;;;;;10012861;29;20049;-86
2023/08/12 17:36:47;;;;;;;5.45;3.92;;;;;;;;;;10012646;29;20058;-86
2023/08/12 17:41:48;;;;;;;5.93;3.75;;;;;;;;;;10000650;29;20284;-85
2023/08/12 17:46:49;;;;;;;5.10;3.50;;;;;;;;;;10012281;29;20046;-86
2023/08/12 17:51:50;;;;;;;5.13;3.08;;;;;;;;;;10011378;29;20130;-87
2023/08/12 17:56:51;;;;;;;3.92;3.30;;;;;;;;;;9982830;29;20038;-85
2023/08/12 18:01:52;;;;;;;6.25;4.05;;;;;;;;;;10012216;29;20680;-86
2023/08/12 18:06:53;;;;;;;6.53;4.80;;;;;;;;;;10012006;29;20050;-85
2023/08/12 18:11:54;;;;;;;8.18;4.00;;;;;;;;;;9994572;29;20049;-85
2023/08/12 18:16:55;;;;;;;13.52;6.13;;;;;;;;;;9999111;29;20042;-85
2023/08/12 18:21:56;;;;;;;12.50;5.72;;;;;;;;;;9994467;29;20050;-86
2023/08/12 18:26:57;;;;;;;13.05;7.97;;;;;;;;;;9994912;29;20053;-86
2023/08/12 18:31:58;;;;;;;17.50;9.63;;;;;;;;;;9993743;29;20042;-86
2023/08/12 18:36:59;;;;;;;12.13;7.63;;;;;;;;;;10010063;29;20553;-86
2023/08/12 18:42:00;;;;;;;8.85;5.80;;;;;;;;;;9998007;29;20046;-86
2023/08/12 18:47:01;;;;;;;9.77;5.47;;;;;;;;;;10010312;29;20129;-87
2023/08/12 18:52:02;;;;;;;7.38;5.20;;;;;;;;;;9993689;29;20033;-85
2023/08/12 18:57:03;;;;;;;10.73;5.90;;;;;;;;;;10010930;29;20093;-87
2023/08/12 19:02:04;;;;;;;8.95;5.50;;;;;;;;;;9991869;29;20081;-86
2023/08/12 19:07:05;;;;;;;9.82;6.03;;;;;;;;;;9993963;29;20078;-85
2023/08/12 19:12:09;;;;;;;12.35;6.82;;;;;;;;;;9992945;29;20042;-85
2023/08/12 19:17:10;;;;;;;15.35;7.15;;;;;;;;;;9992977;29;20050;-85
2023/08/12 19:22:11;;;;;;;12.15;7.25;;;;;;;;;;9992494;29;20045;-86
2023/08/12 19:27:12;;;;;;;10.15;6.47;;;;;;;;;;10008410;29;20090;-85
2023/08/12 19:32:13;;;;;;;10.45;6.85;;;;;;;;;;10008738;29;20045;-85
2023/08/12 19:37:14;;;;;;;10.30;6.47;;;;;;;;;;10008648;29;20415;-85
2023/08/12 19:42:15;;;;;;;8.90;6.55;;;;;;;;;;10008256;29;20041;-86
2023/08/12 19:47:16;;;;;;;11.43;6.85;;;;;;;;;;9991839;29;20534;-86
2023/08/12 19:52:17;;;;;;;13.82;6.78;;;;;;;;;;10008366;29;20069;-86
2023/08/12 19:57:18;;;;;;;8.70;6.65;;;;;;;;;;10007982;29;20410;-86
2023/08/12 20:02:19;;;;;;;11.38;7.05;;;;;;;;;;9991163;29;20065;-85
2023/08/12 20:07:20;;;;;;;10.15;6.70;;;;;;;;;;9991212;29;20054;-85
2023/08/12 20:12:21;;;;;;;12.13;7.43;;;;;;;;;;10008330;29;20446;-85
2023/08/12 20:17:22;;;;;;;9.70;7.43;;;;;;;;;;10014348;29;20052;-86
2023/08/12 20:22:23;;;;;;;10.40;7.53;;;;;;;;;;9998973;29;20134;-86
2023/08/12 20:27:24;;;;;;;11.77;8.98;;;;;;;;;;9997132;29;20452;-86
2023/08/12 20:32:28;;;;;;;13.75;9.65;;;;;;;;;;9997877;29;20406;-86
2023/08/12 20:37:29;;;;;;;12.00;8.75;;;;;;;;;;10013967;29;20050;-85
2023/08/12 20:42:30;;;;;;;11.52;8.07;;;;;;;;;;9998128;29;20050;-85
2023/08/12 20:47:31;;;;;;;13.25;8.85;;;;;;;;;;9997630;29;20050;-85
2023/08/12 20:52:32;;;;;;;13.25;8.95;;;;;;;;;;10013771;29;20426;-85
2023/08/12 20:57:34;;;;;;;14.57;9.95;;;;;;;;;;9997429;29;20065;-86
2023/08/12 21:02:35;;;;;;;18.80;9.82;;;;;;;;;;9996483;29;20068;-85
2023/08/12 21:07:36;;;;;;;12.38;9.52;;;;;;;;;;10013451;29;20058;-85
2023/08/12 21:12:38;;;;;;;16.65;11.35;;;;;;;;;;10013731;29;20712;-84
2023/08/12 21:17:39;;;;;;;13.55;9.88;;;;;;;;;;9994990;29;20452;-85
2023/08/12 21:22:43;;;;;;;17.02;11.15;;;;;;;;;;10004612;29;20102;-85
2023/08/12 21:27:44;;;;;;;15.43;10.40;;;;;;;;;;9995446;29;20053;-85
2023/08/12 21:32:45;;;;;;;16.50;11.30;;;;;;;;;;9996910;29;20340;-86
2023/08/12 21:37:46;;;;;;;14.98;11.43;;;;;;;;;;9995833;29;20048;-86
2023/08/12 21:42:47;;;;;;;16.80;12.40;;;;;;;;;;10013190;29;20060;-86
2023/08/12 21:47:48;;;;;;;16.88;12.40;;;;;;;;;;10012168;29;20046;-85
2023/08/12 21:52:49;;;;;;;16.80;11.85;;;;;;;;;;10012856;29;20048;-86
2023/08/12 21:57:51;;;;;;;18.08;12.63;;;;;;;;;;9995638;29;20050;-85
2023/08/12 22:02:52;;;;;;;17.63;11.93;;;;;;;;;;9995419;29;20064;-87
2023/08/12 22:07:53;;;;;;;17.38;11.68;;;;;;;;;;9995384;29;20494;-86
2023/08/12 22:12:54;;;;;;;17.10;12.38;;;;;;;;;;10011435;29;20034;-85
2023/08/12 22:17:55;;;;;;;18.42;13.27;;;;;;;;;;10010987;29;20038;-85
2023/08/12 22:22:56;;;;;;;16.17;11.65;;;;;;;;;;10011335;29;20050;-86
2023/08/12 22:27:57;;;;;;;15.43;12.15;;;;;;;;;;10010523;29;20057;-85
2023/08/12 22:32:58;;;;;;;14.02;11.65;;;;;;;;;;9994078;29;20049;-85
2023/08/12 22:37:59;;;;;;;15.50;11.05;;;;;;;;;;10010604;29;20107;-86
2023/08/12 22:43:00;;;;;;;18.15;12.52;;;;;;;;;;9984087;29;20081;-86
2023/08/12 22:48:01;;;;;;;19.77;13.27;;;;;;;;;;10008662;29;20052;-86
2023/08/12 22:53:02;;;;;;;18.98;14.02;;;;;;;;;;10010618;29;20166;-85
2023/08/12 22:58:03;;;;;;;20.17;14.48;;;;;;;;;;10009733;29;20045;-85
2023/08/12 23:03:04;;;;;;;15.02;11.73;;;;;;;;;;10009321;29;20046;-85
2023/08/12 23:08:06;;;;;;;18.70;12.82;;;;;;;;;;10009236;29;20419;-85
2023/08/12 23:13:07;;;;;;;18.55;13.45;;;;;;;;;;9992626;29;20042;-84
2023/08/12 23:18:08;;;;;;;21.05;15.80;;;;;;;;;;9992433;29;20668;-85
2023/08/12 23:23:09;;;;;;;21.40;16.33;;;;;;;;;;10009215;29;20050;-84
2023/08/12 23:28:10;;;;;;;20.77;15.77;;;;;;;;;;9991821;29;20078;-85
2023/08/12 23:33:11;;;;;;;22.25;15.82;;;;;;;;;;10008628;29;20046;-85
2023/08/12 23:38:12;;;;;;;22.30;16.58;;;;;;;;;;9992997;29;20182;-85
2023/08/12 23:43:13;;;;;;;24.42;15.98;;;;;;;;;;9991928;29;20042;-85
2023/08/12 23:48:14;;;;;;;23.50;17.33;;;;;;;;;;9991545;29;20053;-85
2023/08/12 23:53:15;;;;;;;22.33;16.58;;;;;;;;;;10005876;29;20582;-85
2023/08/12 23:58:16;;;;;;;23.48;16.65;;;;;;;;;;9992256;29;20048;-85
